Time;durP1;ratioP1;P1;durP2;ratioP2;P2;SDS_P1;SDS_P2;PMS_P1;PMS_P2;Temp;Humidity;BMP_temperature;BMP_pressure;BME280_temperature;BME280_humidity;BME280_pressure;Samples;Min_cycle;Max_cycle;Signal;HPM_P1;HPM_P2
2021/09/29 00:00:10;;;;;;;7.67;5.47;;;15.30;99.90;;;;;;5098659;28;20441;-46
2021/09/29 00:02:37;;;;;;;7.70;5.80;;;15.30;99.90;;;;;;5098893;28;20465;-44
2021/09/29 00:05:06;;;;;;;10.77;5.50;;;15.30;99.90;;;;;;5098532;28;20441;-42
2021/09/29 00:07:33;;;;;;;8.53;5.20;;;15.30;99.90;;;;;;5098930;28;20538;-48
2021/09/29 00:10:00;;;;;;;8.00;5.83;;;15.30;99.90;;;;;;5099147;28;20437;-41
2021/09/29 00:12:26;;;;;;;6.03;5.17;;;15.20;99.90;;;;;;5099397;28;20461;-42
2021/09/29 00:14:53;;;;;;;13.03;6.20;;;15.20;99.90;;;;;;5099266;28;20498;-43
2021/09/29 00:17:19;;;;;;;8.17;5.60;;;15.20;99.90;;;;;;5099347;28;20498;-43
2021/09/29 00:19:46;;;;;;;9.47;5.33;;;15.20;99.90;;;;;;5098905;28;20503;-44
2021/09/29 00:22:14;;;;;;;9.77;5.77;;;15.20;99.90;;;;;;5098895;28;20486;-47
2021/09/29 00:24:41;;;;;;;8.20;5.53;;;15.10;99.90;;;;;;5098040;28;20481;-48
2021/09/29 00:27:07;;;;;;;7.87;5.37;;;15.10;99.90;;;;;;5098483;28;20543;-49
2021/09/29 00:29:34;;;;;;;8.43;5.37;;;15.10;99.90;;;;;;5098240;28;20798;-46
2021/09/29 00:32:05;;;;;;;8.40;5.37;;;15.10;99.90;;;;;;5100279;28;20449;-44
2021/09/29 00:34:35;;;;;;;14.03;6.00;;;15.10;99.90;;;;;;5100068;28;20544;-46
2021/09/29 00:37:03;;;;;;;10.03;5.20;;;15.10;99.90;;;;;;5100374;28;20425;-48
2021/09/29 00:39:31;;;;;;;7.87;4.60;;;15.10;99.90;;;;;;5100022;28;20434;-45
2021/09/29 00:41:58;;;;;;;9.00;4.50;;;15.10;99.90;;;;;;5100157;28;20499;-50
2021/09/29 00:44:26;;;;;;;8.90;5.83;;;15.10;99.90;;;;;;5098968;28;20973;-44
2021/09/29 00:46:53;;;;;;;7.93;5.03;;;15.10;99.90;;;;;;5097931;28;20977;-41
2021/09/29 00:49:20;;;;;;;8.87;4.93;;;15.10;99.90;;;;;;5098106;28;20536;-44
2021/09/29 00:51:46;;;;;;;10.00;5.57;;;15.10;99.90;;;;;;5097981;28;20469;-41
2021/09/29 00:54:13;;;;;;;9.33;5.60;;;15.10;99.90;;;;;;5097611;28;20913;-42
2021/09/29 00:56:42;;;;;;;8.50;5.50;;;15.10;99.90;;;;;;5098185;28;20811;-43
2021/09/29 00:59:09;;;;;;;10.33;5.90;;;15.10;99.90;;;;;;5097606;28;20445;-50
2021/09/29 01:01:36;;;;;;;10.03;5.90;;;15.10;99.90;;;;;;5098332;28;20809;-48
2021/09/29 01:04:03;;;;;;;8.80;5.57;;;15.00;99.90;;;;;;5097828;28;20441;-44
2021/09/29 01:06:37;;;;;;;11.03;5.07;;;15.00;99.90;;;;;;5097917;28;20511;-41
2021/09/29 01:09:11;;;;;;;9.27;5.50;;;15.00;99.90;;;;;;5097595;28;20937;-45
2021/09/29 01:11:52;;;;;;;8.80;5.20;;;15.00;99.90;;;;;;5097450;28;20521;-42
2021/09/29 01:14:27;;;;;;;16.30;5.77;;;15.00;99.90;;;;;;5097949;28;20444;-44
2021/09/29 01:16:57;;;;;;;8.53;5.23;;;14.90;99.90;;;;;;5097351;28;20510;-46
2021/09/29 01:19:37;;;;;;;9.70;5.00;;;14.90;99.90;;;;;;5097887;28;20464;-47
2021/09/29 01:22:13;;;;;;;11.93;7.20;;;14.90;99.90;;;;;;5099602;28;20898;-46
2021/09/29 01:24:51;;;;;;;9.27;5.53;;;14.90;99.90;;;;;;5098824;28;20468;-49
2021/09/29 01:27:21;;;;;;;9.73;6.27;;;14.90;99.90;;;;;;5099203;28;20785;-47
2021/09/29 01:29:48;;;;;;;15.07;6.20;;;14.90;99.90;;;;;;5098071;28;20465;-42
2021/09/29 01:32:15;;;;;;;11.17;5.93;;;14.90;99.90;;;;;;5097633;28;20475;-43
2021/09/29 01:34:42;;;;;;;13.13;5.70;;;14.90;99.90;;;;;;5097298;28;20523;-42
2021/09/29 01:37:11;;;;;;;9.93;5.93;;;14.90;99.90;;;;;;5097282;28;20514;-46
2021/09/29 01:39:38;;;;;;;9.57;5.40;;;14.90;99.90;;;;;;5097066;28;20460;-47
2021/09/29 01:42:05;;;;;;;12.07;6.30;;;14.90;99.90;;;;;;5097267;28;20475;-44
2021/09/29 01:44:34;;;;;;;12.50;7.50;;;15.00;99.90;;;;;;5096949;28;20465;-43
2021/09/29 01:47:01;;;;;;;10.30;6.27;;;15.00;99.90;;;;;;5097212;28;20942;-44
2021/09/29 01:49:36;;;;;;;11.63;5.60;;;15.00;99.90;;;;;;5098904;28;20554;-41
2021/09/29 01:52:06;;;;;;;12.30;6.23;;;15.00;99.90;;;;;;5099691;28;20490;-47
2021/09/29 01:54:36;;;;;;;8.47;5.27;;;15.10;99.90;;;;;;5100139;28;20510;-40
2021/09/29 01:57:04;;;;;;;15.23;7.53;;;15.10;99.90;;;;;;5096849;28;20499;-42
2021/09/29 01:59:30;;;;;;;9.10;4.70;;;15.10;99.90;;;;;;5096003;28;20441;-41
2021/09/29 02:01:58;;;;;;;8.67;4.93;;;15.20;99.90;;;;;;5095413;28;20454;-47
2021/09/29 02:04:25;;;;;;;6.47;4.63;;;15.20;99.90;;;;;;5095718;28;20438;-47
2021/09/29 02:06:54;;;;;;;7.63;4.30;;;15.10;99.90;;;;;;5094774;28;20449;-47
2021/09/29 02:09:22;;;;;;;6.13;4.03;;;15.10;99.90;;;;;;5099535;28;20534;-44
2021/09/29 02:11:49;;;;;;;5.80;4.83;;;15.10;99.90;;;;;;5101675;28;20483;-43
2021/09/29 02:14:18;;;;;;;6.27;4.50;;;15.10;99.90;;;;;;5101044;28;20453;-44
2021/09/29 02:16:45;;;;;;;5.20;3.50;;;15.20;99.90;;;;;;5098824;28;20763;-45
2021/09/29 02:19:14;;;;;;;8.83;4.80;;;15.20;99.90;;;;;;5098156;28;20913;-50
2021/09/29 02:21:41;;;;;;;6.90;4.50;;;15.20;99.90;;;;;;5097947;28;20885;-47
2021/09/29 02:24:09;;;;;;;4.50;3.53;;;15.30;99.90;;;;;;5098358;28;20525;-44
2021/09/29 02:26:36;;;;;;;10.37;4.90;;;15.30;99.90;;;;;;5098294;28;20453;-42
2021/09/29 02:29:04;;;;;;;8.83;5.37;;;15.20;99.90;;;;;;5098070;28;20465;-45
2021/09/29 02:31:31;;;;;;;7.33;4.20;;;15.30;99.90;;;;;;5100361;28;20441;-45
2021/09/29 02:33:58;;;;;;;5.83;3.60;;;15.30;99.90;;;;;;5100769;28;20519;-42
2021/09/29 02:36:26;;;;;;;5.53;3.90;;;15.30;99.90;;;;;;5103246;28;20438;-42
2021/09/29 02:38:53;;;;;;;6.17;3.60;;;15.30;99.90;;;;;;5101798;28;20449;-48
2021/09/29 02:41:20;;;;;;;7.27;4.50;;;15.30;99.90;;;;;;5099833;28;20510;-42
2021/09/29 02:43:47;;;;;;;8.03;4.80;;;15.30;99.90;;;;;;5098310;28;20458;-46
2021/09/29 02:46:14;;;;;;;7.40;4.90;;;15.30;99.90;;;;;;5098082;28;20449;-48
2021/09/29 02:48:41;;;;;;;8.03;4.70;;;15.30;99.90;;;;;;5097623;28;20960;-44
2021/09/29 02:51:08;;;;;;;8.20;4.73;;;15.30;99.90;;;;;;5097956;28;20457;-51
2021/09/29 02:53:36;;;;;;;7.90;5.30;;;15.40;99.90;;;;;;5097684;28;20450;-50
2021/09/29 02:56:05;;;;;;;8.40;4.73;;;15.30;99.90;;;;;;5098599;28;20511;-45
2021/09/29 02:58:32;;;;;;;9.23;4.67;;;15.20;99.90;;;;;;5099155;28;20445;-47
2021/09/29 03:01:00;;;;;;;9.10;5.20;;;15.20;99.90;;;;;;5096790;28;20441;-44
2021/09/29 03:03:27;;;;;;;10.33;4.90;;;15.20;99.90;;;;;;5097545;28;20728;-48
2021/09/29 03:05:54;;;;;;;9.13;5.33;;;15.20;99.90;;;;;;5097701;28;20446;-49
2021/09/29 03:08:21;;;;;;;14.93;5.03;;;15.20;99.90;;;;;;5097420;28;20461;-44
2021/09/29 03:10:49;;;;;;;10.97;5.60;;;15.20;99.90;;;;;;5096748;28;20441;-47
2021/09/29 03:13:16;;;;;;;15.50;4.57;;;15.20;99.90;;;;;;5095802;28;20530;-46
2021/09/29 03:15:42;;;;;;;17.60;5.60;;;15.20;99.90;;;;;;5097372;28;20499;-44
2021/09/29 03:18:09;;;;;;;12.83;6.00;;;15.20;99.90;;;;;;5096143;28;20999;-44
2021/09/29 03:20:36;;;;;;;18.17;6.53;;;15.20;99.90;;;;;;5097278;28;20510;-45
2021/09/29 03:23:04;;;;;;;17.20;6.50;;;15.20;99.90;;;;;;5097108;28;20449;-44
2021/09/29 03:25:31;;;;;;;17.67;5.70;;;15.30;99.90;;;;;;5095960;28;20947;-42
2021/09/29 03:27:59;;;;;;;14.53;6.40;;;15.30;99.90;;;;;;5095164;28;20466;-45
2021/09/29 03:30:25;;;;;;;16.40;6.50;;;15.30;99.90;;;;;;5095150;28;20844;-52
2021/09/29 03:32:52;;;;;;;15.43;5.73;;;15.30;99.90;;;;;;5095439;28;20461;-46
2021/09/29 03:35:19;;;;;;;14.83;6.30;;;15.20;99.90;;;;;;5095253;28;20510;-41
2021/09/29 03:37:46;;;;;;;18.37;7.53;;;15.30;99.90;;;;;;5094953;28;20498;-43
2021/09/29 03:40:15;;;;;;;18.37;7.77;;;15.20;99.90;;;;;;5094780;28;20461;-43
2021/09/29 03:42:42;;;;;;;16.80;7.33;;;15.30;99.90;;;;;;5094670;28;20448;-44
2021/09/29 03:45:12;;;;;;;15.10;7.67;;;15.30;99.90;;;;;;5094685;28;20441;-43
2021/09/29 03:47:40;;;;;;;23.60;7.90;;;15.30;99.90;;;;;;5094800;28;20457;-45
2021/09/29 03:50:08;;;;;;;18.07;8.90;;;15.30;99.90;;;;;;5096627;28;20572;-46
2021/09/29 03:52:35;;;;;;;18.23;7.73;;;15.30;99.90;;;;;;5097311;28;20818;-47
2021/09/29 03:55:01;;;;;;;24.00;8.47;;;15.30;99.90;;;;;;5097242;28;20798;-47
2021/09/29 03:57:28;;;;;;;25.63;8.53;;;15.30;99.90;;;;;;5097057;28;20457;-47
2021/09/29 03:59:55;;;;;;;17.20;7.50;;;15.40;99.90;;;;;;5097000;28;20506;-43
2021/09/29 04:02:23;;;;;;;23.53;7.70;;;15.30;99.90;;;;;;5096755;28;20457;-45
2021/09/29 04:04:50;;;;;;;23.60;10.67;;;15.30;99.90;;;;;;5096347;28;20523;-51
2021/09/29 04:07:16;;;;;;;27.43;9.40;;;15.40;99.90;;;;;;5096945;28;20499;-48
2021/09/29 04:09:46;;;;;;;20.27;9.50;;;15.40;99.90;;;;;;5097297;28;20481;-45
2021/09/29 04:12:13;;;;;;;19.90;9.47;;;15.40;99.90;;;;;;5097492;28;20454;-41
2021/09/29 04:14:39;;;;;;;28.50;10.10;;;15.40;99.90;;;;;;5097937;28;20511;-43
2021/09/29 04:17:06;;;;;;;21.20;9.30;;;15.30;99.90;;;;;;5097657;28;20445;-44
2021/09/29 04:19:36;;;;;;;25.47;10.20;;;15.30;99.90;;;;;;5097160;28;20442;-47
2021/09/29 04:22:03;;;;;;;21.30;8.70;;;15.30;99.90;;;;;;5097814;28;20495;-45
2021/09/29 04:24:33;;;;;;;25.67;10.90;;;15.30;99.90;;;;;;5096890;28;20485;-44
2021/09/29 04:27:00;;;;;;;30.67;9.97;;;15.40;99.90;;;;;;5097114;28;20441;-45
2021/09/29 04:29:26;;;;;;;32.23;12.30;;;15.40;99.90;;;;;;5097478;28;20531;-43
2021/09/29 04:31:53;;;;;;;21.13;9.63;;;15.40;99.90;;;;;;5100891;28;20437;-41
2021/09/29 04:34:20;;;;;;;32.80;11.73;;;15.40;99.90;;;;;;5101572;28;20537;-41
2021/09/29 04:36:48;;;;;;;30.70;10.07;;;15.40;99.90;;;;;;5100460;28;20511;-47
2021/09/29 04:39:15;;;;;;;26.53;10.37;;;15.40;99.90;;;;;;5099962;28;20474;-43
2021/09/29 04:41:42;;;;;;;29.03;10.63;;;15.40;99.90;;;;;;5100331;28;20449;-42
2021/09/29 04:44:09;;;;;;;25.53;10.30;;;15.40;99.90;;;;;;5100377;28;20438;-44
2021/09/29 04:46:36;;;;;;;41.43;11.10;;;15.40;99.90;;;;;;5098499;28;20453;-49
2021/09/29 04:49:03;;;;;;;32.57;10.87;;;15.40;99.90;;;;;;5097916;28;20469;-43
2021/09/29 04:51:30;;;;;;;24.87;9.00;;;15.50;99.90;;;;;;5098148;28;20456;-48
2021/09/29 04:53:58;;;;;;;33.00;10.53;;;15.50;99.90;;;;;;5097922;28;21122;-47
2021/09/29 04:56:25;;;;;;;27.67;11.07;;;15.40;99.90;;;;;;5097647;28;20449;-44
2021/09/29 04:58:52;;;;;;;36.60;10.00;;;15.50;99.90;;;;;;5098018;28;20477;-43
2021/09/29 05:01:21;;;;;;;29.43;10.10;;;15.50;99.90;;;;;;5097538;28;20457;-48
2021/09/29 05:03:48;;;;;;;39.10;12.50;;;15.50;99.90;;;;;;5099554;28;20489;-48
2021/09/29 05:06:14;;;;;;;24.83;10.47;;;15.50;99.90;;;;;;5100146;28;20531;-44
2021/09/29 05:08:43;;;;;;;28.70;10.80;;;15.50;99.90;;;;;;5098762;28;20475;-46
2021/09/29 05:11:21;;;;;;;29.07;11.40;;;15.50;99.90;;;;;;5099769;28;20526;-44
2021/09/29 05:13:48;;;;;;;41.37;11.73;;;15.60;99.90;;;;;;5099898;28;20422;-41
2021/09/29 05:16:15;;;;;;;25.60;10.80;;;15.50;99.90;;;;;;5099359;28;20478;-44
2021/09/29 05:18:42;;;;;;;30.57;11.50;;;15.60;99.90;;;;;;5107859;28;20440;-44
2021/09/29 05:21:09;;;;;;;23.07;10.17;;;15.60;99.90;;;;;;5115142;28;20936;-43
2021/09/29 05:23:35;;;;;;;40.07;11.43;;;15.60;99.90;;;;;;5093055;28;20466;-47
2021/09/29 05:26:02;;;;;;;26.10;8.67;;;15.70;99.90;;;;;;5098774;28;20445;-50
2021/09/29 05:28:36;;;;;;;20.47;8.97;;;15.70;99.90;;;;;;5098915;28;20495;-46
2021/09/29 05:31:03;;;;;;;21.93;8.67;;;15.70;99.90;;;;;;5107887;28;20804;-46
2021/09/29 05:33:30;;;;;;;22.17;10.20;;;15.70;99.90;;;;;;5095834;28;20491;-47
2021/09/29 05:35:56;;;;;;;21.63;10.60;;;15.70;99.90;;;;;;5116940;28;20738;-43
2021/09/29 05:38:23;;;;;;;30.27;9.60;;;15.70;99.90;;;;;;5093837;28;21778;-46
2021/09/29 05:40:50;;;;;;;18.50;8.93;;;15.70;99.90;;;;;;5091466;28;20438;-46
2021/09/29 05:43:17;;;;;;;21.97;9.30;;;15.70;99.90;;;;;;5094827;28;20435;-42
2021/09/29 05:45:45;;;;;;;20.87;8.53;;;15.80;99.90;;;;;;5097629;28;20830;-42
2021/09/29 05:48:11;;;;;;;22.53;9.23;;;15.80;99.90;;;;;;5123216;28;20453;-42
2021/09/29 05:50:38;;;;;;;19.60;8.50;;;15.80;99.90;;;;;;5104462;28;20477;-44
2021/09/29 05:53:05;;;;;;;20.23;9.57;;;15.80;99.90;;;;;;5109225;28;20445;-42
2021/09/29 05:55:31;;;;;;;17.57;9.07;;;15.80;99.90;;;;;;5091876;28;20445;-42
2021/09/29 05:57:58;;;;;;;24.17;10.23;;;15.90;99.90;;;;;;5110277;28;20497;-47
2021/09/29 06:00:25;;;;;;;23.03;9.50;;;15.90;99.90;;;;;;5120075;28;20786;-42
2021/09/29 06:02:53;;;;;;;25.33;10.77;;;16.00;99.90;;;;;;5119892;28;20461;-43
2021/09/29 06:05:21;;;;;;;18.70;8.33;;;16.00;99.90;;;;;;5118961;28;20445;-46
2021/09/29 06:07:48;;;;;;;19.53;9.43;;;16.10;99.90;;;;;;5119380;28;20897;-41
2021/09/29 06:10:15;;;;;;;26.73;11.67;;;16.10;99.90;;;;;;5118609;28;20536;-43
2021/09/29 06:12:42;;;;;;;23.17;9.60;;;16.10;99.90;;;;;;5102586;28;20454;-43
2021/09/29 06:15:17;;;;;;;24.23;10.73;;;16.10;99.90;;;;;;5097023;28;20460;-42
2021/09/29 06:17:52;;;;;;;24.37;11.20;;;16.10;99.90;;;;;;5096907;28;20503;-42
2021/09/29 06:20:20;;;;;;;24.23;10.23;;;16.10;99.90;;;;;;5106440;28;20460;-43
2021/09/29 06:22:47;;;;;;;25.03;10.90;;;16.10;99.90;;;;;;5107653;28;20467;-43
2021/09/29 06:25:14;;;;;;;28.30;10.80;;;16.20;99.90;;;;;;5114239;28;20471;-42
2021/09/29 06:27:40;;;;;;;22.50;10.03;;;16.20;99.90;;;;;;5114467;28;20461;-42
2021/09/29 06:30:08;;;;;;;19.03;9.63;;;16.20;99.90;;;;;;5115518;28;20491;-43
2021/09/29 06:32:35;;;;;;;21.00;9.30;;;16.20;99.90;;;;;;5114625;28;20434;-41
2021/09/29 06:35:01;;;;;;;27.20;11.27;;;16.20;99.90;;;;;;5113985;28;20450;-40
2021/09/29 06:37:31;;;;;;;28.40;13.30;;;16.20;99.90;;;;;;5109974;28;20443;-41
2021/09/29 06:39:58;;;;;;;22.97;11.33;;;16.20;99.90;;;;;;5101265;28;20431;-41
2021/09/29 06:42:25;;;;;;;21.53;10.13;;;16.30;99.90;;;;;;5093847;28;20468;-41
2021/09/29 06:44:52;;;;;;;29.40;11.07;;;16.30;99.90;;;;;;5114679;28;20425;-42
2021/09/29 06:47:18;;;;;;;27.50;11.37;;;16.30;99.90;;;;;;5116047;28;20446;-41
2021/09/29 06:49:45;;;;;;;35.83;14.00;;;16.40;99.90;;;;;;5114894;28;20487;-41
2021/09/29 06:52:11;;;;;;;30.67;13.70;;;16.40;99.90;;;;;;5113663;28;20438;-41
2021/09/29 06:54:39;;;;;;;29.40;12.50;;;16.40;99.90;;;;;;5115331;28;20457;-41
2021/09/29 06:57:07;;;;;;;25.67;12.83;;;16.40;99.90;;;;;;5115629;28;20413;-41
2021/09/29 06:59:35;;;;;;;27.10;14.90;;;16.40;99.90;;;;;;5114918;28;20437;-41
2021/09/29 07:02:01;;;;;;;28.07;12.67;;;16.50;99.90;;;;;;5104472;28;20445;-45
2021/09/29 07:04:28;;;;;;;32.17;12.27;;;16.50;99.90;;;;;;5115721;28;20886;-41
2021/09/29 07:06:55;;;;;;;28.60;11.70;;;16.50;99.90;;;;;;5115408;28;20434;-41
2021/09/29 07:09:22;;;;;;;26.27;13.53;;;16.50;99.90;;;;;;5115341;28;20448;-40
2021/09/29 07:11:50;;;;;;;25.60;13.57;;;16.60;99.90;;;;;;5116084;28;20441;-40
2021/09/29 07:14:16;;;;;;;34.67;12.90;;;16.60;99.90;;;;;;5115505;28;20429;-41
2021/09/29 07:16:43;;;;;;;25.00;12.77;;;16.60;99.90;;;;;;5114031;28;20433;-41
2021/09/29 07:19:10;;;;;;;35.63;14.00;;;16.60;99.90;;;;;;5114438;28;20441;-41
2021/09/29 07:21:36;;;;;;;26.80;12.30;;;16.70;99.90;;;;;;5112362;28;20438;-41
2021/09/29 07:24:09;;;;;;;32.90;15.60;;;16.70;99.90;;;;;;5102869;28;20461;-40
2021/09/29 07:26:37;;;;;;;32.37;15.70;;;16.70;99.90;;;;;;5093850;28;20454;-40
2021/09/29 07:29:05;;;;;;;28.50;12.03;;;16.80;99.90;;;;;;5111745;28;20464;-41
2021/09/29 07:31:32;;;;;;;26.57;12.83;;;16.80;99.90;;;;;;5113787;28;20485;-41
2021/09/29 07:33:59;;;;;;;24.87;12.23;;;16.80;99.90;;;;;;5112135;28;20437;-41
2021/09/29 07:36:25;;;;;;;28.40;13.80;;;16.80;99.90;;;;;;5109770;28;20442;-41
2021/09/29 07:38:54;;;;;;;23.53;12.67;;;16.80;99.90;;;;;;5114836;28;20430;-42
2021/09/29 07:41:20;;;;;;;23.43;11.80;;;16.90;99.90;;;;;;5112092;28;20437;-40
2021/09/29 07:43:47;;;;;;;23.40;11.43;;;16.80;99.90;;;;;;5112148;28;20453;-42
2021/09/29 07:46:15;;;;;;;30.67;13.67;;;16.90;99.90;;;;;;5120132;28;20417;-40
2021/09/29 07:48:42;;;;;;;20.73;11.27;;;17.00;99.90;;;;;;5112838;28;20442;-41
2021/09/29 07:51:09;;;;;;;30.40;13.27;;;17.00;99.90;;;;;;5095706;28;20481;-41
2021/09/29 07:53:36;;;;;;;20.60;11.47;;;17.20;99.90;;;;;;5074094;28;20545;-40
2021/09/29 07:56:04;;;;;;;21.60;11.00;;;17.40;99.90;;;;;;5074004;28;20594;-40
2021/09/29 07:58:30;;;;;;;24.97;13.27;;;17.50;99.90;;;;;;5088611;28;20861;-43
2021/09/29 08:00:58;;;;;;;31.77;13.73;;;17.60;99.90;;;;;;5094268;28;20453;-42
2021/09/29 08:03:26;;;;;;;30.33;12.87;;;17.60;99.90;;;;;;5094602;28;20442;-41
2021/09/29 08:05:54;;;;;;;26.00;12.07;;;17.40;99.90;;;;;;5097405;28;20449;-40
2021/09/29 08:08:23;;;;;;;20.83;11.30;;;17.40;99.90;;;;;;5098924;28;20445;-40
2021/09/29 08:10:49;;;;;;;25.80;13.07;;;17.30;99.90;;;;;;5098294;28;20481;-41
2021/09/29 08:13:16;;;;;;;30.40;12.83;;;17.30;99.90;;;;;;5098502;28;20502;-41
2021/09/29 08:15:43;;;;;;;31.50;13.27;;;17.20;99.90;;;;;;5098367;28;20441;-42
2021/09/29 08:18:09;;;;;;;32.30;15.23;;;17.10;99.90;;;;;;5098564;28;20834;-41
2021/09/29 08:20:38;;;;;;;24.47;12.57;;;17.10;99.90;;;;;;5098670;28;20449;-42
2021/09/29 08:23:08;;;;;;;29.73;14.50;;;17.00;99.90;;;;;;5098773;28;20445;-41
2021/09/29 08:26:14;;;;;;;35.13;14.77;;;17.00;99.90;;;;;;5097992;28;20779;-40
2021/09/29 08:28:48;;;;;;;24.67;12.00;;;16.90;99.90;;;;;;5097891;28;20445;-41
2021/09/29 08:31:23;;;;;;;32.63;13.30;;;16.90;99.90;;;;;;5098095;28;20476;-41
2021/09/29 08:34:05;;;;;;;28.90;14.13;;;16.80;99.90;;;;;;5097852;28;20471;-41
2021/09/29 08:36:39;;;;;;;29.77;12.90;;;16.80;99.90;;;;;;5098154;28;20444;-40
2021/09/29 08:39:11;;;;;;;39.20;16.70;;;16.70;99.90;;;;;;5098281;28;20421;-41
2021/09/29 08:41:58;;;;;;;27.63;15.40;;;16.60;99.90;;;;;;5098180;28;20445;-41
2021/09/29 08:44:27;;;;;;;31.27;16.50;;;16.60;99.90;;;;;;5098200;28;20453;-41
2021/09/29 08:47:04;;;;;;;32.00;16.50;;;16.50;99.90;;;;;;5098648;28;20777;-42
2021/09/29 08:49:40;;;;;;;33.33;16.73;;;16.50;99.90;;;;;;5098403;28;20485;-41
2021/09/29 08:52:35;;;;;;;36.13;16.67;;;16.60;99.90;;;;;;5097627;28;20567;-41
2021/09/29 09:15:09;;;;;;;28.00;15.83;;;16.90;99.90;;;;;;5097298;28;20433;-41
2021/09/29 09:17:38;;;;;;;30.97;16.53;;;16.90;99.90;;;;;;5096718;28;20446;-42
2021/09/29 09:20:10;;;;;;;32.43;18.63;;;16.90;99.90;;;;;;5095823;28;20445;-42
2021/09/29 09:22:37;;;;;;;34.00;19.83;;;16.90;99.90;;;;;;5086667;28;20442;-41
2021/09/29 09:25:06;;;;;;;39.73;16.47;;;16.90;99.90;;;;;;5082412;28;20478;-40
2021/09/29 09:27:45;;;;;;;31.33;16.97;;;16.90;99.90;;;;;;5077365;28;20435;-42
2021/09/29 09:30:24;;;;;;;31.83;16.87;;;16.70;99.90;;;;;;5078524;28;21198;-41
2021/09/29 09:32:55;;;;;;;33.20;16.70;;;16.70;99.90;;;;;;5082071;28;20794;-41
2021/09/29 09:35:22;;;;;;;25.27;15.77;;;16.60;99.90;;;;;;5096627;28;20836;-41
2021/09/29 09:37:54;;;;;;;35.63;16.00;;;16.50;99.90;;;;;;5092200;28;20438;-42
2021/09/29 09:40:24;;;;;;;33.00;16.43;;;16.40;99.90;;;;;;5094457;28;20450;-42
2021/09/29 09:42:56;;;;;;;38.70;16.50;;;16.40;99.90;;;;;;5091220;28;20540;-41
2021/09/29 09:45:32;;;;;;;40.83;18.97;;;16.40;99.90;;;;;;5113103;28;20433;-41
2021/09/29 09:47:59;;;;;;;38.40;19.13;;;16.30;99.90;;;;;;5078423;28;20464;-42
2021/09/29 09:50:27;;;;;;;36.53;17.67;;;16.30;99.90;;;;;;5099485;28;20992;-41
2021/09/29 09:52:54;;;;;;;43.20;18.20;;;16.20;99.90;;;;;;5104200;28;20927;-41
2021/09/29 09:55:25;;;;;;;34.30;17.20;;;16.20;99.90;;;;;;5095496;28;20449;-40
2021/09/29 09:57:57;;;;;;;40.57;19.30;;;16.30;99.90;;;;;;5092693;28;20831;-40
2021/09/29 10:00:26;;;;;;;38.10;18.43;;;16.30;99.90;;;;;;5099955;28;20464;-41
2021/09/29 10:02:55;;;;;;;35.53;17.80;;;16.30;99.90;;;;;;5103765;28;20551;-41
2021/09/29 10:05:23;;;;;;;31.10;16.90;;;16.30;99.90;;;;;;5110674;28;20782;-42
2021/09/29 10:07:50;;;;;;;42.93;17.60;;;16.30;99.90;;;;;;5095424;28;20754;-41
2021/09/29 10:10:23;;;;;;;37.63;18.30;;;16.40;99.90;;;;;;5102069;28;20544;-40
2021/09/29 10:27:07;;;;;;;36.03;17.87;;;16.30;99.90;;;;;;5093769;28;20886;-41
2021/09/29 10:29:41;;;;;;;38.37;18.80;;;16.30;99.90;;;;;;5111732;28;20448;-40
2021/09/29 10:32:15;;;;;;;36.93;19.90;;;16.30;99.90;;;;;;5099812;28;20982;-42
2021/09/29 10:34:56;;;;;;;31.07;18.30;;;16.30;99.90;;;;;;5105246;28;20789;-41
2021/09/29 10:37:37;;;;;;;40.43;19.67;;;16.30;99.90;;;;;;5083349;28;20861;-40
2021/09/29 10:40:19;;;;;;;40.57;19.27;;;16.20;99.90;;;;;;5084856;28;20456;-41
2021/09/29 10:42:58;;;;;;;39.37;17.73;;;16.30;99.90;;;;;;5105105;28;20444;-40
2021/09/29 11:03:17;;;;;;;32.60;16.70;;;16.20;99.90;;;;;;5097454;28;20748;-42
2021/09/29 11:05:58;;;;;;;34.23;16.47;;;16.20;99.90;;;;;;5079288;28;20924;-41
2021/09/29 11:28:11;;;;;;;32.00;16.30;;;16.30;99.90;;;;;;5088757;28;20493;-40
2021/09/29 11:30:42;;;;;;;36.13;19.70;;;16.30;99.90;;;;;;5105857;28;20437;-40
2021/09/29 11:33:16;;;;;;;34.00;17.10;;;16.30;99.90;;;;;;5109026;28;20444;-40
2021/09/29 11:35:58;;;;;;;39.30;18.47;;;16.30;99.90;;;;;;5097658;28;20495;-41
2021/09/29 11:49:46;;;;;;;27.20;14.43;;;16.40;99.90;;;;;;5092036;28;20753;-41
2021/09/29 12:08:45;;;;;;;27.53;15.27;;;16.50;99.90;;;;;;5060741;28;20417;-40
2021/09/29 12:11:18;;;;;;;29.00;15.60;;;16.50;99.90;;;;;;5094538;28;20497;-40
2021/09/29 12:13:51;;;;;;;28.33;14.93;;;16.50;99.90;;;;;;5094794;28;20495;-41
2021/09/29 12:16:27;;;;;;;26.80;14.47;;;16.60;99.90;;;;;;5109073;28;20521;-40
2021/09/29 12:18:56;;;;;;;23.13;12.73;;;16.60;99.90;;;;;;5103995;28;20487;-40
2021/09/29 12:21:36;;;;;;;33.30;15.70;;;16.60;99.90;;;;;;5099494;28;20437;-40
2021/09/29 12:24:07;;;;;;;25.17;14.30;;;16.70;99.90;;;;;;5110033;28;20469;-40
2021/09/29 12:26:41;;;;;;;32.43;14.10;;;16.80;99.90;;;;;;5093696;28;20836;-40
2021/09/29 12:29:18;;;;;;;30.00;14.87;;;16.90;99.90;;;;;;5107192;28;20437;-40
2021/09/29 12:31:58;;;;;;;24.73;13.20;;;16.90;99.90;;;;;;5114438;28;20480;-40
2021/09/29 12:34:30;;;;;;;21.63;12.10;;;17.00;99.90;;;;;;5100849;28;20619;-40
2021/09/29 12:37:08;;;;;;;20.07;12.43;;;17.00;99.90;;;;;;5104999;28;20441;-40
2021/09/29 12:39:37;;;;;;;22.30;11.10;;;17.00;99.90;;;;;;5112641;28;20456;-40
2021/09/29 12:42:05;;;;;;;19.67;12.13;;;17.10;99.90;;;;;;5095265;28;20445;-40
2021/09/29 12:44:32;;;;;;;18.37;11.07;;;17.10;99.90;;;;;;5101731;28;20456;-41
2021/09/29 12:47:07;;;;;;;16.60;9.97;;;17.10;99.90;;;;;;5114313;28;20456;-40
2021/09/29 12:49:34;;;;;;;21.27;10.70;;;17.20;99.90;;;;;;5098858;28;20437;-41
2021/09/29 12:52:09;;;;;;;16.80;10.70;;;17.20;99.90;;;;;;5116184;28;20480;-40
2021/09/29 12:54:42;;;;;;;15.97;10.67;;;17.20;99.90;;;;;;5110466;28;20522;-40
2021/09/29 12:57:09;;;;;;;19.07;9.30;;;17.30;99.90;;;;;;5110577;28;20433;-41
2021/09/29 12:59:36;;;;;;;16.33;9.07;;;17.30;99.90;;;;;;5101690;28;20451;-40
2021/09/29 13:02:03;;;;;;;15.60;8.67;;;17.40;99.90;;;;;;5114316;28;20459;-40
2021/09/29 13:04:29;;;;;;;16.97;10.60;;;17.40;99.90;;;;;;5104337;28;20445;-40
2021/09/29 13:06:56;;;;;;;12.50;8.57;;;17.30;99.90;;;;;;5107160;28;20441;-41
2021/09/29 13:09:23;;;;;;;18.00;7.73;;;17.20;99.90;;;;;;5111424;28;20433;-40
2021/09/29 13:11:51;;;;;;;14.77;9.77;;;17.30;99.90;;;;;;5100279;28;20469;-41
2021/09/29 13:14:18;;;;;;;14.77;9.97;;;17.30;99.90;;;;;;5116784;28;20440;-41
2021/09/29 13:16:45;;;;;;;16.40;9.50;;;17.30;99.90;;;;;;5107820;28;20445;-40
2021/09/29 13:19:15;;;;;;;18.17;11.17;;;17.40;99.90;;;;;;5109548;28;20496;-41
2021/09/29 13:21:49;;;;;;;15.03;8.20;;;17.50;99.90;;;;;;5099662;28;20437;-41
2021/09/29 13:24:20;;;;;;;13.97;9.83;;;17.50;99.90;;;;;;5111684;28;20564;-42
2021/09/29 13:35:28;;;;;;;17.00;9.53;;;17.80;99.90;;;;;;5117103;28;20442;-41
2021/09/29 13:37:56;;;;;;;13.20;8.70;;;17.90;99.90;;;;;;5099957;28;20457;-41
2021/09/29 13:40:23;;;;;;;15.93;8.97;;;18.00;99.90;;;;;;5110779;28;20426;-41
2021/09/29 13:42:50;;;;;;;10.43;7.93;;;18.00;99.90;;;;;;5096328;28;20917;-41
2021/09/29 13:45:18;;;;;;;9.93;7.70;;;18.00;99.90;;;;;;5110771;28;20449;-42
2021/09/29 13:47:45;;;;;;;13.43;8.00;;;17.90;99.90;;;;;;5099924;28;20498;-41
2021/09/29 13:50:13;;;;;;;12.13;8.50;;;17.80;99.90;;;;;;5112555;28;20468;-41
2021/09/29 13:52:40;;;;;;;12.23;8.10;;;17.60;99.90;;;;;;5096373;28;20503;-41
2021/09/29 13:55:11;;;;;;;14.80;9.10;;;17.50;99.90;;;;;;5108384;28;20440;-41
2021/09/29 13:57:41;;;;;;;14.83;7.73;;;17.40;99.90;;;;;;5100059;28;20449;-41
2021/09/29 14:00:21;;;;;;;12.30;7.13;;;17.40;99.90;;;;;;5083631;28;20457;-41
2021/09/29 14:30:15;;;;;;;22.27;12.53;;;17.80;99.90;;;;;;5110726;28;20496;-41
2021/09/29 14:32:54;;;;;;;14.23;8.80;;;17.70;99.90;;;;;;5117616;28;20477;-41
2021/09/29 14:35:23;;;;;;;12.03;9.03;;;17.60;99.90;;;;;;5105902;28;20445;-42
2021/09/29 14:37:50;;;;;;;13.60;8.50;;;17.60;99.90;;;;;;5106387;28;20772;-41
2021/09/29 14:40:18;;;;;;;10.57;8.50;;;17.60;99.90;;;;;;5105360;28;20441;-42
2021/09/29 14:42:45;;;;;;;13.70;9.00;;;17.60;99.90;;;;;;5115093;28;20455;-42
2021/09/29 14:45:12;;;;;;;14.43;8.90;;;17.50;99.90;;;;;;5113430;28;20434;-41
2021/09/29 14:47:39;;;;;;;11.73;7.90;;;17.50;99.90;;;;;;5105303;28;20449;-44
2021/09/29 14:50:06;;;;;;;13.00;7.17;;;17.50;99.90;;;;;;5109523;28;20875;-43
2021/09/29 14:52:34;;;;;;;14.20;8.50;;;17.50;99.90;;;;;;5119256;28;20469;-41
2021/09/29 14:55:01;;;;;;;13.67;7.90;;;17.50;99.90;;;;;;5117805;28;20518;-41
2021/09/29 14:57:28;;;;;;;11.37;8.70;;;17.50;99.90;;;;;;5126518;28;20505;-43